Ben Franklin, Texas
Current Conditions -  °F | °C
As of 7:35 PM on Tuesday 25 Nov 2014 (Local Time) from KPRX Reporting Station
Clear Clear  
Wind Chill: 45°   Ceiling: Unl
Heat Index: 45°   Visibility: 10mi
Dew Point: 27°   Wind: 0mph
Humidity: 49%   Direction: NA
Pressure: 30.17"   Gusts: NA
Location:  33.48°N, 95.77°W
Report Text: KPRX 260135Z 00000KT 10SM CLR 07/M03 A3017 RMK AO1
Loading
Personal Weather Stations






























Interactive Weather Map New forecast layout! Learn more

10-Day Weather Forecast

Advertisements
Track Severe Weather on mobile